IZ0QWM-13 Scandriglia IT current weather conditions

sailwx.info

Wind from 082 at 1 knots gusting 3

Air temperature 21.7° C
Dewpoint 13.8° C

Last reported at 2020-Aug-08 00:02 UTC.
Time now 2020-Aug-08 00:17 UTC

Location: N 42°10' E 012°47'.
View on Google Maps.

See reports from other nearby stations

  
Tides and Currents Weather Stations Pressure Air Temp Water Temp Dewpoint Dewpoint Depression Visibility Wind Speed Wind Dir Waves Ship Positions
date/time (UTC)wind fromknots sea level pressurealtimeterstation pressurevisibilityair tempwater tempwave heightnotes
2020-Aug-08 00:02 082 1 gusting 3 21.7
2020-Aug-07 23:52 107 0 gusting 3 21.7
2020-Aug-07 23:42 061 1 gusting 3 21.7
2020-Aug-07 23:32 087 1 gusting 3 21.7
2020-Aug-07 23:22 139 0 gusting 2 21.7
2020-Aug-07 23:12 139 0 gusting 1 21.7
2020-Aug-07 23:02 126 0 gusting 2 21.7
2020-Aug-07 22:52 118 0 gusting 4 22.2
2020-Aug-07 22:42 105 0 gusting 3 22.8
2020-Aug-07 22:32 096 1 gusting 3 23.3
2020-Aug-07 22:22 092 0 gusting 2 23.3
2020-Aug-07 22:12 103 0 gusting 1 22.8
2020-Aug-07 22:02 079 22.8
2020-Aug-07 21:52 091 0 gusting 3 22.8
2020-Aug-07 21:42 134 1 gusting 3 22.8
2020-Aug-07 21:32 103 1 gusting 2 22.8
2020-Aug-07 21:22 136 2 gusting 4 23.3
2020-Aug-07 21:12 116 1 gusting 5 23.9
2020-Aug-07 21:02 147 0 gusting 2 23.9
2020-Aug-07 20:52 140 23.9
2020-Aug-07 20:42 136 23.9
2020-Aug-07 20:32 147 23.9
2020-Aug-07 20:22 131 0 gusting 4 24.4
2020-Aug-07 20:12 116 24.4
2020-Aug-07 20:02 014 24.4
2020-Aug-07 19:52 172 24.4
2020-Aug-07 19:42 25.0
2020-Aug-07 19:32 138 25.0
2020-Aug-07 19:22 081 0 gusting 1 26.1
2020-Aug-07 19:12 311 26.1
2020-Aug-07 19:02 311 26.1
2020-Aug-07 18:52 329 26.7
2020-Aug-07 18:42 278 0 gusting 3 26.7
2020-Aug-07 18:32 042 27.2
2020-Aug-07 18:22 358 0 gusting 1 27.8
2020-Aug-07 18:12 304 1 gusting 4 28.3
2020-Aug-07 18:02 331 0 gusting 1 28.9
2020-Aug-07 17:52 329 0 gusting 2 28.9
2020-Aug-07 17:42 329 29.4
2020-Aug-07 17:32 166 29.4
2020-Aug-07 17:22 184 0 gusting 4 28.9
2020-Aug-07 17:12 229 1 gusting 4 28.9
2020-Aug-07 17:02 172 3 gusting 6 29.4
2020-Aug-07 16:52 234 0 gusting 3 30.0
2020-Aug-07 16:42 178 1 gusting 3 29.4
2020-Aug-07 16:32 183 2 gusting 6 30.0
2020-Aug-07 16:22 176 4 gusting 7 30.0
2020-Aug-07 16:12 184 3 gusting 7 30.0
2020-Aug-07 16:02 179 2 gusting 6 30.6
2020-Aug-07 15:52 193 4 gusting 10 30.6
2020-Aug-07 15:42 182 4 gusting 10 30.6
2020-Aug-07 15:32 164 3 gusting 6 30.6
2020-Aug-07 15:22 173 2 gusting 7 30.6
2020-Aug-07 15:12 169 1 gusting 6 30.6
2020-Aug-07 15:02 226 0 gusting 5 30.6
2020-Aug-07 14:52 223 1 gusting 3 30.6
2020-Aug-07 14:42 136 3 gusting 11 31.7
2020-Aug-07 14:32 240 1 gusting 5 33.9
2020-Aug-07 14:22 349 35.0
2020-Aug-07 14:12 149 35.0
2020-Aug-07 14:02 331 33.9
2020-Aug-07 13:52 183 0 gusting 1 33.9
2020-Aug-07 13:42 320 33.3
2020-Aug-07 13:32 005 32.8
2020-Aug-07 13:22 316 0 gusting 2 32.8
2020-Aug-07 13:12 083 0 gusting 2 32.8
2020-Aug-07 13:02 355 32.8
2020-Aug-07 12:52 033 32.8
2020-Aug-07 12:42 282 0 gusting 2 32.8
2020-Aug-07 12:32 360 32.2
2020-Aug-07 12:22 171 31.7
2020-Aug-07 12:12 138 31.7
2020-Aug-07 12:02 048 31.7
2020-Aug-07 11:52 125 31.7
2020-Aug-07 11:42 059 0 gusting 1 32.2
2020-Aug-07 11:32 300 0 gusting 1 32.2
2020-Aug-07 11:22 353 0 gusting 2 31.7
2020-Aug-07 11:12 302 32.2
2020-Aug-07 11:02 323 31.7
2020-Aug-07 10:52 023 31.1
2020-Aug-07 10:42 294 31.1
2020-Aug-07 10:32 021 31.1
2020-Aug-07 10:22 273 31.1
2020-Aug-07 10:12 274 1 gusting 2 31.1
2020-Aug-07 10:02 221 30.6
2020-Aug-07 09:52 295 29.4
2020-Aug-07 09:42 291 28.9
2020-Aug-07 09:32 116 28.9
2020-Aug-07 09:22 139 1 gusting 5 28.9
2020-Aug-07 09:12 094 1 gusting 6 28.9
2020-Aug-07 09:02 097 2 gusting 5 28.9
2020-Aug-07 08:59 079 27.8
2020-Aug-07 08:52 116 1 gusting 3 28.3
2020-Aug-07 08:49 288 26.7
2020-Aug-07 08:42 101 27.8
2020-Aug-07 08:38 042 26.7
2020-Aug-07 08:32 152 2 gusting 6 27.8
2020-Aug-07 08:28 035 26.1
2020-Aug-07 08:22 105 0 gusting 2 27.8
2020-Aug-07 08:16 290 26.1
2020-Aug-07 08:12 086 27.2
2020-Aug-07 08:06 26.1
2020-Aug-07 08:02 111 0 gusting 4 27.2
2020-Aug-07 07:55 291 25.6
2020-Aug-07 07:52 191 0 gusting 1 27.2
2020-Aug-07 07:45 25.6
2020-Aug-07 07:42 073 26.7
2020-Aug-07 07:39 284 25.0
2020-Aug-07 07:32 349 0 gusting 2 26.1
2020-Aug-07 07:28 259 25.0
2020-Aug-07 07:22 129 26.1
2020-Aug-07 07:18 268 24.4
2020-Aug-07 07:12 045 25.6
2020-Aug-07 07:07 23.9
2020-Aug-07 07:02 073 25.0
2020-Aug-07 06:57 23.3
2020-Aug-07 06:52 155 23.9
2020-Aug-07 06:45 22.8
2020-Aug-07 06:42 23.3
2020-Aug-07 06:35 22.2
2020-Aug-07 06:32 154 22.8
2020-Aug-07 06:30 21.1
2020-Aug-07 06:22 141 21.7
2020-Aug-07 06:12 136 21.1
2020-Aug-07 06:08 20.0
2020-Aug-07 06:02 20.6
2020-Aug-07 05:58 19.4
2020-Aug-07 05:52 142 20.0
2020-Aug-07 05:48 19.4
2020-Aug-07 05:42 132 20.0
2020-Aug-07 05:36 18.9
2020-Aug-07 05:32 147 0 gusting 2 19.4
2020-Aug-07 05:27 18.9
2020-Aug-07 05:22 124 19.4
2020-Aug-07 05:15 18.9
2020-Aug-07 05:12 160 0 gusting 1 19.4
2020-Aug-07 05:05 18.9
2020-Aug-07 05:02 161 0 gusting 1 20.0
2020-Aug-07 04:54 19.4
2020-Aug-07 04:42 256 18.9
2020-Aug-07 04:33 19.4
2020-Aug-07 04:23 19.4
2020-Aug-07 04:12 142 20.0
2020-Aug-07 04:02 140 20.6
2020-Aug-07 03:52 115 0 gusting 2 20.6
2020-Aug-07 03:42 108 1 gusting 4 20.6
2020-Aug-07 03:39 300 19.4
2020-Aug-07 03:32 014 0 gusting 2 20.0
2020-Aug-07 03:29 19.4
2020-Aug-07 03:22 114 2 gusting 5 20.0
2020-Aug-07 03:17 19.4
2020-Aug-07 03:12 117 1 gusting 5 20.0
2020-Aug-07 03:08 19.4
2020-Aug-07 03:02 152 1 gusting 3 20.0
2020-Aug-07 02:56 19.4
2020-Aug-07 02:52 136 0 gusting 3 20.0
2020-Aug-07 02:46 19.4
2020-Aug-07 02:42 122 0 gusting 3 20.6
2020-Aug-07 02:35 20.0
2020-Aug-07 02:32 137 20.6
2020-Aug-07 02:25 20.0
2020-Aug-07 02:22 086 20.0
2020-Aug-07 02:19 19.4
2020-Aug-07 02:12 123 20.0
2020-Aug-07 02:08 19.4
2020-Aug-07 02:02 157 0 gusting 1 20.0
2020-Aug-07 01:58 19.4
2020-Aug-07 01:52 134 20.0
2020-Aug-07 01:47 19.4
2020-Aug-07 01:42 136 20.0
2020-Aug-07 01:37 18.9
2020-Aug-07 01:32 136 20.0
2020-Aug-07 01:25 18.9
2020-Aug-07 01:22 137 20.0
2020-Aug-07 01:16 18.9
2020-Aug-07 01:12 129 20.0
2020-Aug-07 01:04 19.4
2020-Aug-07 00:54 19.4
2020-Aug-07 00:43 20.0
2020-Aug-07 00:33 20.0
2020-Aug-07 00:22 161 20.6
2020-Aug-07 00:12 153 20.6
2020-Aug-07 00:02 141 0 gusting 1 21.1
2020-Aug-06 23:55 20.6
2020-Aug-06 23:52 21.1
2020-Aug-06 23:45 20.0
2020-Aug-06 23:42 182 21.1
2020-Aug-06 23:34 20.6
2020-Aug-06 23:23 20.6
2020-Aug-06 23:13 20.6
2020-Aug-06 23:02 140 21.7
2020-Aug-06 22:52 140 21.7
2020-Aug-06 22:42 148 22.2
2020-Aug-06 22:32 153 22.2
2020-Aug-06 22:25 21.1
2020-Aug-06 22:13 21.7
2020-Aug-06 22:03 21.7
2020-Aug-06 21:52 21.7
2020-Aug-06 21:42 21.7
2020-Aug-06 21:32 085 0 gusting 1 22.8
2020-Aug-06 21:22 175 23.3
2020-Aug-06 21:12 175 23.3
2020-Aug-06 21:02 23.3
2020-Aug-06 20:59 22.8
2020-Aug-06 20:52 175 23.9
2020-Aug-06 20:49 23.3
2020-Aug-06 20:42 255 23.9
2020-Aug-06 20:37 23.3
2020-Aug-06 20:32 119 23.9
2020-Aug-06 20:28 23.3
2020-Aug-06 20:22 055 0 gusting 1 23.9
2020-Aug-06 20:16 23.3
2020-Aug-06 20:12 074 23.9
2020-Aug-06 20:07 23.3
2020-Aug-06 20:02 086 0 gusting 2 24.4
2020-Aug-06 19:55 256 23.9
2020-Aug-06 19:52 090 0 gusting 2 24.4
2020-Aug-06 19:50 23.9
2020-Aug-06 19:42 130 24.4
2020-Aug-06 19:40 23.9
2020-Aug-06 19:32 25.0
2020-Aug-06 19:28 24.4
2020-Aug-06 19:22 036 25.0
2020-Aug-06 19:17 24.4
2020-Aug-06 19:12 067 25.6
2020-Aug-06 19:07 24.4
2020-Aug-06 19:02 060 0 gusting 2 25.6
2020-Aug-06 18:56 24.4
2020-Aug-06 18:52 071 26.1
2020-Aug-06 18:46 25.0
2020-Aug-06 18:42 119 26.7
2020-Aug-06 18:35 25.6
2020-Aug-06 18:32 122 0 gusting 2 27.2
2020-Aug-06 18:24 26.1
2020-Aug-06 18:14 26.7
2020-Aug-06 18:03 27.2
2020-Aug-06 17:53 27.2
2020-Aug-06 17:42 265 27.2
2020-Aug-06 17:32 089 1 gusting 5 28.3
2020-Aug-06 17:22 163 1 gusting 7 27.8
2020-Aug-06 17:12 194 2 gusting 4 27.8
2020-Aug-06 17:02 147 6 gusting 11 27.2
2020-Aug-06 16:58 26.7
2020-Aug-06 16:52 118 2 gusting 6 27.2
2020-Aug-06 16:48 146 26.7
2020-Aug-06 16:42 183 4 gusting 9 27.2
2020-Aug-06 16:38 328 0 gusting 1 27.2
2020-Aug-06 16:32 201 4 gusting 8 27.8
2020-Aug-06 16:28 281 27.2
2020-Aug-06 11:13 29.4
2020-Aug-06 11:02 186 2 gusting 6 29.4
2020-Aug-06 10:52 305 1 gusting 5 28.9
2020-Aug-06 10:42 225 2 gusting 5 29.4
2020-Aug-06 10:32 176 2 gusting 6 28.9
2020-Aug-06 10:22 189 0 gusting 3 28.9
2020-Aug-06 10:20 28.9
2020-Aug-06 10:12 180 0 gusting 3 28.9
2020-Aug-06 10:08 28.3
2020-Aug-06 10:02 240 1 gusting 2 28.3
2020-Aug-06 09:58 090 27.8
2020-Aug-06 09:52 180 1 gusting 7 28.3
2020-Aug-06 09:47 278 28.3
2020-Aug-06 09:42 321 0 gusting 1 28.9
2020-Aug-06 09:36 290 27.8
2020-Aug-06 09:32 142 29.4
2020-Aug-06 09:25 282 28.3
2020-Aug-06 09:22 213 28.9
2020-Aug-06 09:15 263 27.8
2020-Aug-06 09:12 024 28.3
2020-Aug-06 09:05 275 27.8
2020-Aug-06 09:02 115 28.3
2020-Aug-06 08:53 270 27.2
2020-Aug-06 08:43 271 27.2
2020-Aug-06 08:33 276 26.1
2020-Aug-06 08:22 047 0 gusting 4 27.2
2020-Aug-06 08:12 269 0 gusting 1 26.7
2020-Aug-06 08:02 109 26.1
2020-Aug-06 07:52 126 26.1
2020-Aug-06 07:42 335 25.6
2020-Aug-06 07:39 23.9
2020-Aug-06 07:32 074 25.0
2020-Aug-06 07:29 272 23.3
2020-Aug-06 07:22 074 25.0
2020-Aug-06 07:18 23.3
2020-Aug-06 07:12 150 24.4
2020-Aug-06 07:07 235 22.8
2020-Aug-06 07:02 198 23.9
2020-Aug-06 06:57 22.2
2020-Aug-06 06:52 140 23.3
2020-Aug-06 06:46 296 21.7
2020-Aug-06 06:42 204 0 gusting 3 22.2
2020-Aug-06 06:35 21.1
2020-Aug-06 06:32 081 21.7
2020-Aug-06 06:22 165 20.6
2020-Aug-06 06:14 19.4
2020-Aug-06 06:03 18.9
2020-Aug-06 05:53 17.8
2020-Aug-06 05:42 160 18.3
2020-Aug-06 05:32 205 18.3
2020-Aug-06 05:22 133 0 gusting 1 18.9
2020-Aug-06 05:12 343 18.9
2020-Aug-06 05:02 067 18.3
2020-Aug-06 05:00 17.8
2020-Aug-06 04:52 091 18.3
2020-Aug-06 04:48 17.8
2020-Aug-06 04:42 100 17.8
2020-Aug-06 04:38 17.2
2020-Aug-06 04:32 121 17.2
2020-Aug-06 04:27 16.7
2020-Aug-06 04:22 123 0 gusting 2 16.7
2020-Aug-06 04:17 16.1
2020-Aug-06 04:12 117 2 gusting 5 16.7
2020-Aug-06 04:05 16.1
2020-Aug-06 04:02 126 16.7
2020-Aug-06 03:55 16.1
2020-Aug-06 03:52 109 17.2
2020-Aug-06 03:44 16.7
2020-Aug-06 03:34 17.2
2020-Aug-06 03:22 17.2
2020-Aug-06 03:12 17.8
2020-Aug-06 03:02 17.8
2020-Aug-06 02:52 139 1 gusting 3 18.3
2020-Aug-06 02:42 128 0 gusting 3 18.3
2020-Aug-06 02:32 090 0 gusting 2 18.3
2020-Aug-06 02:25 17.8
2020-Aug-06 02:13 17.8
2020-Aug-06 02:03 17.8
2020-Aug-06 01:52 109 18.3
2020-Aug-06 01:42 118 0 gusting 2 18.3
2020-Aug-06 01:32 117 1 gusting 5 18.3
2020-Aug-06 01:22 128 0 gusting 2 18.3
2020-Aug-06 01:12 135 2 gusting 6 18.3
2020-Aug-06 01:02 128 3 gusting 6 18.3
2020-Aug-06 00:59 17.8
2020-Aug-06 00:52 125 1 gusting 3 18.3
2020-Aug-06 00:49 17.8
2020-Aug-06 00:42 116 0 gusting 3 18.3
2020-Aug-06 00:39 17.8
2020-Aug-06 00:32 105 0 gusting 1 18.9
2020-Aug-06 00:27 18.3
2020-Aug-06 00:22 118 1 gusting 3 18.9
2020-Aug-06 00:17 18.3
2020-Aug-06 00:12 111 0 gusting 2 18.9
2020-Aug-06 00:06 17.8
2020-Aug-06 00:02 123 0 gusting 2 18.9